sensor_id;sensor_type;location;lat;lon;timestamp;temperature;humidity
20091;DHT22;10205;49.678;6.560;2023-09-19T00:01:30;24.20;56.60
20091;DHT22;10205;49.678;6.560;2023-09-19T00:04:00;24.20;56.70
20091;DHT22;10205;49.678;6.560;2023-09-19T00:06:28;24.20;56.70
20091;DHT22;10205;49.678;6.560;2023-09-19T00:08:57;24.20;56.70
20091;DHT22;10205;49.678;6.560;2023-09-19T00:11:26;24.10;56.70
20091;DHT22;10205;49.678;6.560;2023-09-19T00:13:54;24.10;56.70
20091;DHT22;10205;49.678;6.560;2023-09-19T00:16:22;24.10;56.80
20091;DHT22;10205;49.678;6.560;2023-09-19T00:18:52;24.10;56.80
20091;DHT22;10205;49.678;6.560;2023-09-19T00:21:19;24.10;56.80
20091;DHT22;10205;49.678;6.560;2023-09-19T00:23:46;24.00;56.70
20091;DHT22;10205;49.678;6.560;2023-09-19T00:26:13;24.00;56.80
20091;DHT22;10205;49.678;6.560;2023-09-19T00:28:40;24.00;56.80
20091;DHT22;10205;49.678;6.560;2023-09-19T00:31:08;24.00;56.80
20091;DHT22;10205;49.678;6.560;2023-09-19T00:33:35;24.00;56.80
20091;DHT22;10205;49.678;6.560;2023-09-19T00:36:04;23.90;56.80
20091;DHT22;10205;49.678;6.560;2023-09-19T00:38:31;23.90;56.80
20091;DHT22;10205;49.678;6.560;2023-09-19T00:40:58;23.80;56.80
20091;DHT22;10205;49.678;6.560;2023-09-19T00:43:25;23.80;56.90
20091;DHT22;10205;49.678;6.560;2023-09-19T00:45:54;23.80;56.90
20091;DHT22;10205;49.678;6.560;2023-09-19T00:48:22;23.80;57.00
20091;DHT22;10205;49.678;6.560;2023-09-19T00:50:52;23.70;57.00
20091;DHT22;10205;49.678;6.560;2023-09-19T00:53:22;23.70;57.00
20091;DHT22;10205;49.678;6.560;2023-09-19T00:55:51;23.70;57.10
20091;DHT22;10205;49.678;6.560;2023-09-19T00:58:19;23.60;57.00
20091;DHT22;10205;49.678;6.560;2023-09-19T01:00:47;23.60;57.10
20091;DHT22;10205;49.678;6.560;2023-09-19T01:03:15;23.60;57.10
20091;DHT22;10205;49.678;6.560;2023-09-19T01:05:43;23.60;57.10
20091;DHT22;10205;49.678;6.560;2023-09-19T01:08:10;23.50;57.00
20091;DHT22;10205;49.678;6.560;2023-09-19T01:10:44;23.50;57.10
20091;DHT22;10205;49.678;6.560;2023-09-19T01:13:22;23.50;57.10
20091;DHT22;10205;49.678;6.560;2023-09-19T01:16:03;23.50;57.10
20091;DHT22;10205;49.678;6.560;2023-09-19T01:18:44;23.40;57.20
20091;DHT22;10205;49.678;6.560;2023-09-19T01:21:26;23.40;57.20
20091;DHT22;10205;49.678;6.560;2023-09-19T01:24:12;23.40;57.20
20091;DHT22;10205;49.678;6.560;2023-09-19T01:27:17;23.30;57.30
20091;DHT22;10205;49.678;6.560;2023-09-19T01:30:14;23.30;57.30
20091;DHT22;10205;49.678;6.560;2023-09-19T01:32:44;23.30;57.20
20091;DHT22;10205;49.678;6.560;2023-09-19T01:35:12;23.20;57.20
20091;DHT22;10205;49.678;6.560;2023-09-19T01:37:39;23.20;57.20
20091;DHT22;10205;49.678;6.560;2023-09-19T01:40:11;23.10;57.20
20091;DHT22;10205;49.678;6.560;2023-09-19T01:42:45;23.10;57.30
20091;DHT22;10205;49.678;6.560;2023-09-19T01:45:25;23.10;57.40
20091;DHT22;10205;49.678;6.560;2023-09-19T01:48:05;23.00;57.40
20091;DHT22;10205;49.678;6.560;2023-09-19T01:50:52;23.00;57.40
20091;DHT22;10205;49.678;6.560;2023-09-19T01:53:27;23.00;57.50
20091;DHT22;10205;49.678;6.560;2023-09-19T01:55:57;23.00;57.40
20091;DHT22;10205;49.678;6.560;2023-09-19T01:58:32;22.90;57.40
20091;DHT22;10205;49.678;6.560;2023-09-19T02:01:07;22.90;57.50
20091;DHT22;10205;49.678;6.560;2023-09-19T02:03:39;22.90;57.50
20091;DHT22;10205;49.678;6.560;2023-09-19T02:06:07;22.80;57.60
20091;DHT22;10205;49.678;6.560;2023-09-19T02:08:37;22.80;57.50
20091;DHT22;10205;49.678;6.560;2023-09-19T02:11:05;22.80;57.50
20091;DHT22;10205;49.678;6.560;2023-09-19T02:13:32;22.80;57.60
20091;DHT22;10205;49.678;6.560;2023-09-19T02:15:59;22.70;57.70
20091;DHT22;10205;49.678;6.560;2023-09-19T02:18:29;22.70;57.70
20091;DHT22;10205;49.678;6.560;2023-09-19T02:20:56;22.70;57.70
20091;DHT22;10205;49.678;6.560;2023-09-19T02:23:24;22.70;57.70
20091;DHT22;10205;49.678;6.560;2023-09-19T02:25:52;22.60;57.70
20091;DHT22;10205;49.678;6.560;2023-09-19T02:28:20;22.60;57.80
20091;DHT22;10205;49.678;6.560;2023-09-19T02:30:47;22.60;57.80
20091;DHT22;10205;49.678;6.560;2023-09-19T02:33:15;22.50;57.80
20091;DHT22;10205;49.678;6.560;2023-09-19T02:35:45;22.50;57.80
20091;DHT22;10205;49.678;6.560;2023-09-19T02:38:12;22.50;57.90
20091;DHT22;10205;49.678;6.560;2023-09-19T02:40:40;22.50;57.90
20091;DHT22;10205;49.678;6.560;2023-09-19T02:43:09;22.40;57.80
20091;DHT22;10205;49.678;6.560;2023-09-19T02:45:36;22.40;57.90
20091;DHT22;10205;49.678;6.560;2023-09-19T02:48:04;22.40;57.90
20091;DHT22;10205;49.678;6.560;2023-09-19T02:50:33;22.40;57.90
20091;DHT22;10205;49.678;6.560;2023-09-19T02:53:02;22.30;57.90
20091;DHT22;10205;49.678;6.560;2023-09-19T02:55:30;22.30;57.90
20091;DHT22;10205;49.678;6.560;2023-09-19T02:57:58;22.30;58.00
20091;DHT22;10205;49.678;6.560;2023-09-19T03:00:26;22.30;58.00
20091;DHT22;10205;49.678;6.560;2023-09-19T03:02:54;22.20;57.90
20091;DHT22;10205;49.678;6.560;2023-09-19T03:05:23;22.20;58.00
20091;DHT22;10205;49.678;6.560;2023-09-19T03:07:52;22.20;58.10
20091;DHT22;10205;49.678;6.560;2023-09-19T03:10:23;22.20;58.10
20091;DHT22;10205;49.678;6.560;2023-09-19T03:12:50;22.20;58.20
20091;DHT22;10205;49.678;6.560;2023-09-19T03:15:17;22.10;58.10
20091;DHT22;10205;49.678;6.560;2023-09-19T03:17:45;22.10;58.10
20091;DHT22;10205;49.678;6.560;2023-09-19T03:20:13;22.10;58.80
20091;DHT22;10205;49.678;6.560;2023-09-19T03:22:42;22.10;58.10
20091;DHT22;10205;49.678;6.560;2023-09-19T03:25:10;22.10;58.20
20091;DHT22;10205;49.678;6.560;2023-09-19T03:27:39;22.00;58.10
20091;DHT22;10205;49.678;6.560;2023-09-19T03:30:07;22.00;58.20
20091;DHT22;10205;49.678;6.560;2023-09-19T03:32:35;22.00;58.20
20091;DHT22;10205;49.678;6.560;2023-09-19T03:35:03;22.00;58.30
20091;DHT22;10205;49.678;6.560;2023-09-19T03:37:32;22.00;58.30
20091;DHT22;10205;49.678;6.560;2023-09-19T03:39:59;21.90;58.30
20091;DHT22;10205;49.678;6.560;2023-09-19T03:42:30;21.90;58.30
20091;DHT22;10205;49.678;6.560;2023-09-19T03:44:58;21.90;58.30
20091;DHT22;10205;49.678;6.560;2023-09-19T03:47:29;21.90;58.40
20091;DHT22;10205;49.678;6.560;2023-09-19T03:49:57;21.80;58.30
20091;DHT22;10205;49.678;6.560;2023-09-19T03:52:24;21.80;58.30
20091;DHT22;10205;49.678;6.560;2023-09-19T03:54:52;21.80;58.40
20091;DHT22;10205;49.678;6.560;2023-09-19T03:57:19;21.80;58.40
20091;DHT22;10205;49.678;6.560;2023-09-19T03:59:47;21.80;58.40
20091;DHT22;10205;49.678;6.560;2023-09-19T04:02:15;21.70;58.40
20091;DHT22;10205;49.678;6.560;2023-09-19T04:04:48;21.70;58.50
20091;DHT22;10205;49.678;6.560;2023-09-19T04:07:15;21.70;58.50
20091;DHT22;10205;49.678;6.560;2023-09-19T04:09:42;21.60;58.40
20091;DHT22;10205;49.678;6.560;2023-09-19T04:12:09;21.60;58.50
20091;DHT22;10205;49.678;6.560;2023-09-19T04:14:36;21.60;58.50
20091;DHT22;10205;49.678;6.560;2023-09-19T04:17:04;21.60;58.50
20091;DHT22;10205;49.678;6.560;2023-09-19T04:19:33;21.60;58.60
20091;DHT22;10205;49.678;6.560;2023-09-19T04:22:00;21.50;59.20
20091;DHT22;10205;49.678;6.560;2023-09-19T04:24:29;21.50;58.50
20091;DHT22;10205;49.678;6.560;2023-09-19T04:26:58;21.50;58.50
20091;DHT22;10205;49.678;6.560;2023-09-19T04:29:25;21.50;58.60
20091;DHT22;10205;49.678;6.560;2023-09-19T04:31:55;21.50;58.60
20091;DHT22;10205;49.678;6.560;2023-09-19T04:34:23;21.50;58.60
20091;DHT22;10205;49.678;6.560;2023-09-19T04:36:52;21.50;58.70
20091;DHT22;10205;49.678;6.560;2023-09-19T04:39:19;21.40;58.60
20091;DHT22;10205;49.678;6.560;2023-09-19T04:41:50;21.40;58.60
20091;DHT22;10205;49.678;6.560;2023-09-19T04:44:18;21.40;58.60
20091;DHT22;10205;49.678;6.560;2023-09-19T04:46:46;21.40;58.70
20091;DHT22;10205;49.678;6.560;2023-09-19T04:49:13;21.40;58.70
20091;DHT22;10205;49.678;6.560;2023-09-19T04:51:40;21.40;58.70
20091;DHT22;10205;49.678;6.560;2023-09-19T04:54:09;21.30;58.70
20091;DHT22;10205;49.678;6.560;2023-09-19T04:56:36;21.40;58.80
20091;DHT22;10205;49.678;6.560;2023-09-19T04:59:06;21.30;58.70
20091;DHT22;10205;49.678;6.560;2023-09-19T05:01:33;21.30;58.70
20091;DHT22;10205;49.678;6.560;2023-09-19T05:04:00;21.30;58.80
20091;DHT22;10205;49.678;6.560;2023-09-19T05:06:30;21.20;58.80
20091;DHT22;10205;49.678;6.560;2023-09-19T05:08:58;21.20;58.70
20091;DHT22;10205;49.678;6.560;2023-09-19T05:11:27;21.20;58.70
20091;DHT22;10205;49.678;6.560;2023-09-19T05:13:55;21.20;58.80
20091;DHT22;10205;49.678;6.560;2023-09-19T05:16:23;21.20;58.80
20091;DHT22;10205;49.678;6.560;2023-09-19T05:18:50;21.20;58.80
20091;DHT22;10205;49.678;6.560;2023-09-19T05:21:17;21.20;58.90
20091;DHT22;10205;49.678;6.560;2023-09-19T05:23:44;21.10;58.70
20091;DHT22;10205;49.678;6.560;2023-09-19T05:26:13;21.10;58.80
20091;DHT22;10205;49.678;6.560;2023-09-19T05:28:43;21.10;58.80
20091;DHT22;10205;49.678;6.560;2023-09-19T05:31:10;21.10;58.80
20091;DHT22;10205;49.678;6.560;2023-09-19T05:33:37;21.00;58.70
20091;DHT22;10205;49.678;6.560;2023-09-19T05:36:04;21.00;58.80
20091;DHT22;10205;49.678;6.560;2023-09-19T05:38:35;21.00;58.80
20091;DHT22;10205;49.678;6.560;2023-09-19T05:41:02;21.00;59.50
20091;DHT22;10205;49.678;6.560;2023-09-19T05:43:29;21.00;58.80
20091;DHT22;10205;49.678;6.560;2023-09-19T05:46:00;21.00;58.80
20091;DHT22;10205;49.678;6.560;2023-09-19T05:48:27;20.90;58.80
20091;DHT22;10205;49.678;6.560;2023-09-19T05:50:54;20.90;58.80
20091;DHT22;10205;49.678;6.560;2023-09-19T05:53:21;20.90;58.80
20091;DHT22;10205;49.678;6.560;2023-09-19T05:55:48;20.80;58.80
20091;DHT22;10205;49.678;6.560;2023-09-19T05:58:16;20.80;58.80
20091;DHT22;10205;49.678;6.560;2023-09-19T06:00:43;20.80;58.90
20091;DHT22;10205;49.678;6.560;2023-09-19T06:03:14;20.80;58.80
20091;DHT22;10205;49.678;6.560;2023-09-19T06:05:43;20.80;58.90
20091;DHT22;10205;49.678;6.560;2023-09-19T06:08:11;20.70;58.80
20091;DHT22;10205;49.678;6.560;2023-09-19T06:10:38;20.70;59.40
20091;DHT22;10205;49.678;6.560;2023-09-19T06:13:06;20.70;58.90
20091;DHT22;10205;49.678;6.560;2023-09-19T06:15:35;20.70;58.90
20091;DHT22;10205;49.678;6.560;2023-09-19T06:18:03;20.70;58.90
20091;DHT22;10205;49.678;6.560;2023-09-19T06:20:33;20.60;58.90
20091;DHT22;10205;49.678;6.560;2023-09-19T06:23:03;20.60;58.90
20091;DHT22;10205;49.678;6.560;2023-09-19T06:25:30;20.60;58.90
20091;DHT22;10205;49.678;6.560;2023-09-19T06:27:57;20.60;58.90
20091;DHT22;10205;49.678;6.560;2023-09-19T06:30:25;20.60;58.90
20091;DHT22;10205;49.678;6.560;2023-09-19T06:32:58;20.50;58.90
20091;DHT22;10205;49.678;6.560;2023-09-19T06:35:27;20.50;59.00
20091;DHT22;10205;49.678;6.560;2023-09-19T06:38:02;20.50;59.00
20091;DHT22;10205;49.678;6.560;2023-09-19T06:40:30;20.50;59.00
20091;DHT22;10205;49.678;6.560;2023-09-19T06:42:58;20.50;59.00
20091;DHT22;10205;49.678;6.560;2023-09-19T06:45:28;20.50;59.10
20091;DHT22;10205;49.678;6.560;2023-09-19T06:47:55;20.40;59.00
20091;DHT22;10205;49.678;6.560;2023-09-19T06:50:23;20.40;59.00
20091;DHT22;10205;49.678;6.560;2023-09-19T06:52:52;20.40;59.10
20091;DHT22;10205;49.678;6.560;2023-09-19T06:55:24;20.40;59.10
20091;DHT22;10205;49.678;6.560;2023-09-19T06:57:53;20.40;59.20
20091;DHT22;10205;49.678;6.560;2023-09-19T07:00:21;20.40;59.20
20091;DHT22;10205;49.678;6.560;2023-09-19T07:02:55;20.40;59.20
20091;DHT22;10205;49.678;6.560;2023-09-19T07:05:24;20.40;59.30
20091;DHT22;10205;49.678;6.560;2023-09-19T07:07:53;20.40;59.20
20091;DHT22;10205;49.678;6.560;2023-09-19T07:10:21;20.30;59.20
20091;DHT22;10205;49.678;6.560;2023-09-19T07:12:56;20.30;59.20
20091;DHT22;10205;49.678;6.560;2023-09-19T07:15:24;20.30;59.30
20091;DHT22;10205;49.678;6.560;2023-09-19T07:17:52;20.30;59.30
20091;DHT22;10205;49.678;6.560;2023-09-19T07:20:20;20.30;59.30
20091;DHT22;10205;49.678;6.560;2023-09-19T07:22:47;20.30;59.30
20091;DHT22;10205;49.678;6.560;2023-09-19T07:25:16;20.30;59.20
20091;DHT22;10205;49.678;6.560;2023-09-19T07:27:43;20.30;59.30
20091;DHT22;10205;49.678;6.560;2023-09-19T07:30:13;20.30;59.30
20091;DHT22;10205;49.678;6.560;2023-09-19T07:32:42;20.30;59.30
20091;DHT22;10205;49.678;6.560;2023-09-19T07:35:09;20.30;59.30
20091;DHT22;10205;49.678;6.560;2023-09-19T07:37:37;20.30;59.30
20091;DHT22;10205;49.678;6.560;2023-09-19T07:40:06;20.30;60.00
20091;DHT22;10205;49.678;6.560;2023-09-19T07:42:35;20.30;59.40
20091;DHT22;10205;49.678;6.560;2023-09-19T07:45:07;20.30;59.40
20091;DHT22;10205;49.678;6.560;2023-09-19T07:47:36;20.30;59.30
20091;DHT22;10205;49.678;6.560;2023-09-19T07:50:04;20.30;59.40
20091;DHT22;10205;49.678;6.560;2023-09-19T07:52:33;20.30;59.40
20091;DHT22;10205;49.678;6.560;2023-09-19T07:55:00;20.30;59.40
20091;DHT22;10205;49.678;6.560;2023-09-19T07:57:32;20.30;60.00
20091;DHT22;10205;49.678;6.560;2023-09-19T08:00:00;20.40;59.40
20091;DHT22;10205;49.678;6.560;2023-09-19T08:02:30;20.40;59.40
20091;DHT22;10205;49.678;6.560;2023-09-19T08:05:04;20.40;59.40
20091;DHT22;10205;49.678;6.560;2023-09-19T08:07:35;20.40;59.40
20091;DHT22;10205;49.678;6.560;2023-09-19T08:10:03;20.40;59.30
20091;DHT22;10205;49.678;6.560;2023-09-19T08:12:33;20.50;59.40
20091;DHT22;10205;49.678;6.560;2023-09-19T08:15:01;20.40;59.30
20091;DHT22;10205;49.678;6.560;2023-09-19T08:17:33;20.50;59.30
20091;DHT22;10205;49.678;6.560;2023-09-19T08:20:02;20.50;59.30
20091;DHT22;10205;49.678;6.560;2023-09-19T08:22:30;20.50;59.20
20091;DHT22;10205;49.678;6.560;2023-09-19T08:24:59;20.50;59.30
20091;DHT22;10205;49.678;6.560;2023-09-19T08:27:30;20.50;59.20
20091;DHT22;10205;49.678;6.560;2023-09-19T08:29:57;20.60;59.20
20091;DHT22;10205;49.678;6.560;2023-09-19T08:32:25;20.60;59.20
20091;DHT22;10205;49.678;6.560;2023-09-19T08:34:53;20.60;59.20
20091;DHT22;10205;49.678;6.560;2023-09-19T08:37:21;20.70;59.20
20091;DHT22;10205;49.678;6.560;2023-09-19T08:39:49;20.70;59.10
20091;DHT22;10205;49.678;6.560;2023-09-19T08:42:16;20.70;59.10
20091;DHT22;10205;49.678;6.560;2023-09-19T08:44:46;20.70;59.10
20091;DHT22;10205;49.678;6.560;2023-09-19T08:47:15;20.80;59.10
20091;DHT22;10205;49.678;6.560;2023-09-19T08:49:53;20.80;59.00
20091;DHT22;10205;49.678;6.560;2023-09-19T08:52:31;20.80;58.80
20091;DHT22;10205;49.678;6.560;2023-09-19T08:55:06;20.90;58.90
20091;DHT22;10205;49.678;6.560;2023-09-19T08:57:38;20.90;58.80
20091;DHT22;10205;49.678;6.560;2023-09-19T09:00:10;20.90;58.80
20091;DHT22;10205;49.678;6.560;2023-09-19T09:02:43;21.00;58.80
20091;DHT22;10205;49.678;6.560;2023-09-19T09:05:12;21.00;58.70
20091;DHT22;10205;49.678;6.560;2023-09-19T09:07:43;21.00;58.70
20091;DHT22;10205;49.678;6.560;2023-09-19T09:10:11;21.10;58.70
20091;DHT22;10205;49.678;6.560;2023-09-19T09:12:39;21.10;58.70
20091;DHT22;10205;49.678;6.560;2023-09-19T09:15:09;21.10;58.60
20091;DHT22;10205;49.678;6.560;2023-09-19T09:17:41;21.20;58.50
20091;DHT22;10205;49.678;6.560;2023-09-19T09:20:11;21.20;58.50
20091;DHT22;10205;49.678;6.560;2023-09-19T09:22:38;21.20;58.50
20091;DHT22;10205;49.678;6.560;2023-09-19T09:25:19;21.30;58.50
20091;DHT22;10205;49.678;6.560;2023-09-19T09:27:59;21.30;58.40
20091;DHT22;10205;49.678;6.560;2023-09-19T09:30:34;21.40;58.30
20091;DHT22;10205;49.678;6.560;2023-09-19T09:33:10;21.40;58.20
20091;DHT22;10205;49.678;6.560;2023-09-19T09:35:46;21.40;58.10
20091;DHT22;10205;49.678;6.560;2023-09-19T09:38:18;21.50;58.20
20091;DHT22;10205;49.678;6.560;2023-09-19T09:40:48;21.50;58.20
20091;DHT22;10205;49.678;6.560;2023-09-19T09:43:28;21.60;58.00
20091;DHT22;10205;49.678;6.560;2023-09-19T09:46:12;21.60;57.90
20091;DHT22;10205;49.678;6.560;2023-09-19T09:48:58;21.60;57.80
20091;DHT22;10205;49.678;6.560;2023-09-19T09:51:48;21.70;57.70
20091;DHT22;10205;49.678;6.560;2023-09-19T09:54:25;21.80;57.80
20091;DHT22;10205;49.678;6.560;2023-09-19T09:57:02;21.80;57.70
20091;DHT22;10205;49.678;6.560;2023-09-19T09:59:47;21.90;57.60
20091;DHT22;10205;49.678;6.560;2023-09-19T10:02:18;22.00;57.40
20091;DHT22;10205;49.678;6.560;2023-09-19T10:04:55;22.00;57.50
20091;DHT22;10205;49.678;6.560;2023-09-19T10:07:35;22.10;57.40
20091;DHT22;10205;49.678;6.560;2023-09-19T10:10:08;22.10;57.30
20091;DHT22;10205;49.678;6.560;2023-09-19T10:12:49;22.20;57.20
20091;DHT22;10205;49.678;6.560;2023-09-19T10:15:24;22.20;57.10
20091;DHT22;10205;49.678;6.560;2023-09-19T10:17:56;22.30;57.10
20091;DHT22;10205;49.678;6.560;2023-09-19T10:20:24;22.30;57.10
20091;DHT22;10205;49.678;6.560;2023-09-19T10:23:06;22.40;57.00
20091;DHT22;10205;49.678;6.560;2023-09-19T10:25:40;22.50;56.90
20091;DHT22;10205;49.678;6.560;2023-09-19T10:28:11;22.50;56.80
20091;DHT22;10205;49.678;6.560;2023-09-19T10:30:42;22.60;56.60
20091;DHT22;10205;49.678;6.560;2023-09-19T10:33:13;22.70;56.50
20091;DHT22;10205;49.678;6.560;2023-09-19T10:35:43;22.70;56.50
20091;DHT22;10205;49.678;6.560;2023-09-19T10:38:12;22.80;56.30
20091;DHT22;10205;49.678;6.560;2023-09-19T10:40:41;22.80;56.10
20091;DHT22;10205;49.678;6.560;2023-09-19T10:43:16;22.90;56.00
20091;DHT22;10205;49.678;6.560;2023-09-19T10:45:44;22.90;55.80
20091;DHT22;10205;49.678;6.560;2023-09-19T10:48:15;23.00;55.90
20091;DHT22;10205;49.678;6.560;2023-09-19T10:50:46;23.00;55.80
20091;DHT22;10205;49.678;6.560;2023-09-19T10:53:17;23.10;55.60
20091;DHT22;10205;49.678;6.560;2023-09-19T10:55:54;23.10;56.20
20091;DHT22;10205;49.678;6.560;2023-09-19T10:58:29;23.10;55.00
20091;DHT22;10205;49.678;6.560;2023-09-19T11:01:00;23.20;55.10
20091;DHT22;10205;49.678;6.560;2023-09-19T11:03:34;23.20;55.10
20091;DHT22;10205;49.678;6.560;2023-09-19T11:06:11;23.30;55.10
20091;DHT22;10205;49.678;6.560;2023-09-19T11:08:55;23.30;55.00
20091;DHT22;10205;49.678;6.560;2023-09-19T11:11:41;23.30;54.50
20091;DHT22;10205;49.678;6.560;2023-09-19T11:14:41;23.40;54.30
20091;DHT22;10205;49.678;6.560;2023-09-19T11:17:40;23.40;54.20
20091;DHT22;10205;49.678;6.560;2023-09-19T11:20:20;23.50;54.30
20091;DHT22;10205;49.678;6.560;2023-09-19T11:23:20;23.50;54.20
20091;DHT22;10205;49.678;6.560;2023-09-19T11:25:50;23.50;54.00
20091;DHT22;10205;49.678;6.560;2023-09-19T11:28:32;23.60;54.30
20091;DHT22;10205;49.678;6.560;2023-09-19T11:34:47;23.60;53.50
20091;DHT22;10205;49.678;6.560;2023-09-19T11:40:36;23.80;53.10
20091;DHT22;10205;49.678;6.560;2023-09-19T11:43:27;23.80;53.60
20091;DHT22;10205;49.678;6.560;2023-09-19T11:46:05;23.80;52.70
20091;DHT22;10205;49.678;6.560;2023-09-19T11:48:34;23.90;53.30
20091;DHT22;10205;49.678;6.560;2023-09-19T11:51:19;23.90;53.30
20091;DHT22;10205;49.678;6.560;2023-09-19T11:53:50;23.90;52.70
20091;DHT22;10205;49.678;6.560;2023-09-19T11:56:19;24.00;53.10
20091;DHT22;10205;49.678;6.560;2023-09-19T11:58:50;24.10;53.30
20091;DHT22;10205;49.678;6.560;2023-09-19T12:01:25;24.10;53.00
20091;DHT22;10205;49.678;6.560;2023-09-19T12:03:58;24.10;52.70
20091;DHT22;10205;49.678;6.560;2023-09-19T12:06:30;24.20;52.90
20091;DHT22;10205;49.678;6.560;2023-09-19T12:08:58;24.20;52.70
20091;DHT22;10205;49.678;6.560;2023-09-19T12:11:31;24.30;52.70
20091;DHT22;10205;49.678;6.560;2023-09-19T12:14:02;24.30;52.80
20091;DHT22;10205;49.678;6.560;2023-09-19T12:16:29;24.40;52.60
20091;DHT22;10205;49.678;6.560;2023-09-19T12:19:17;24.40;52.50
20091;DHT22;10205;49.678;6.560;2023-09-19T12:21:54;24.50;51.70
20091;DHT22;10205;49.678;6.560;2023-09-19T12:24:24;24.60;51.70
20091;DHT22;10205;49.678;6.560;2023-09-19T12:27:00;24.60;51.80
20091;DHT22;10205;49.678;6.560;2023-09-19T12:29:31;24.70;51.70
20091;DHT22;10205;49.678;6.560;2023-09-19T12:32:08;24.70;51.50
20091;DHT22;10205;49.678;6.560;2023-09-19T12:34:36;24.80;51.60
20091;DHT22;10205;49.678;6.560;2023-09-19T12:37:10;24.80;51.40
20091;DHT22;10205;49.678;6.560;2023-09-19T12:39:47;24.80;51.00
20091;DHT22;10205;49.678;6.560;2023-09-19T12:42:17;24.90;51.30
20091;DHT22;10205;49.678;6.560;2023-09-19T12:44:50;24.90;51.20
20091;DHT22;10205;49.678;6.560;2023-09-19T12:47:20;25.00;51.10
20091;DHT22;10205;49.678;6.560;2023-09-19T12:50:09;25.00;51.20
20091;DHT22;10205;49.678;6.560;2023-09-19T12:52:45;25.00;50.60
20091;DHT22;10205;49.678;6.560;2023-09-19T12:55:21;25.00;50.90
20091;DHT22;10205;49.678;6.560;2023-09-19T12:58:00;25.10;50.50
20091;DHT22;10205;49.678;6.560;2023-09-19T13:00:37;25.10;50.40
20091;DHT22;10205;49.678;6.560;2023-09-19T13:03:25;25.10;50.70
20091;DHT22;10205;49.678;6.560;2023-09-19T13:05:55;25.20;50.50
20091;DHT22;10205;49.678;6.560;2023-09-19T13:08:27;25.20;50.80
20091;DHT22;10205;49.678;6.560;2023-09-19T13:11:06;25.20;50.30
20091;DHT22;10205;49.678;6.560;2023-09-19T13:13:41;25.30;50.10
20091;DHT22;10205;49.678;6.560;2023-09-19T13:16:10;25.30;50.30
20091;DHT22;10205;49.678;6.560;2023-09-19T13:18:44;25.30;50.30
20091;DHT22;10205;49.678;6.560;2023-09-19T13:21:13;25.30;50.10
20091;DHT22;10205;49.678;6.560;2023-09-19T13:23:55;25.30;50.30
20091;DHT22;10205;49.678;6.560;2023-09-19T13:26:25;25.30;49.70
20091;DHT22;10205;49.678;6.560;2023-09-19T13:28:53;25.30;50.10
20091;DHT22;10205;49.678;6.560;2023-09-19T13:31:21;25.40;50.00
20091;DHT22;10205;49.678;6.560;2023-09-19T13:33:49;25.40;49.80
20091;DHT22;10205;49.678;6.560;2023-09-19T13:36:17;25.40;50.00
20091;DHT22;10205;49.678;6.560;2023-09-19T13:38:45;25.40;49.90
20091;DHT22;10205;49.678;6.560;2023-09-19T13:41:16;25.30;50.60
20091;DHT22;10205;49.678;6.560;2023-09-19T13:43:43;25.40;49.80
20091;DHT22;10205;49.678;6.560;2023-09-19T13:46:14;25.40;49.80
20091;DHT22;10205;49.678;6.560;2023-09-19T13:48:43;25.40;49.80
20091;DHT22;10205;49.678;6.560;2023-09-19T13:51:11;25.40;49.40
20091;DHT22;10205;49.678;6.560;2023-09-19T13:53:40;25.40;48.60
20091;DHT22;10205;49.678;6.560;2023-09-19T13:56:07;25.40;48.30
20091;DHT22;10205;49.678;6.560;2023-09-19T13:58:36;25.40;48.10
20091;DHT22;10205;49.678;6.560;2023-09-19T14:01:03;25.40;48.00
20091;DHT22;10205;49.678;6.560;2023-09-19T14:03:31;25.30;48.20
20091;DHT22;10205;49.678;6.560;2023-09-19T14:05:58;25.30;48.20
20091;DHT22;10205;49.678;6.560;2023-09-19T14:08:25;25.30;48.30
20091;DHT22;10205;49.678;6.560;2023-09-19T14:10:52;25.30;48.40
20091;DHT22;10205;49.678;6.560;2023-09-19T14:13:20;25.30;48.50
20091;DHT22;10205;49.678;6.560;2023-09-19T14:15:49;25.30;48.40
20091;DHT22;10205;49.678;6.560;2023-09-19T14:18:17;25.40;48.40
20091;DHT22;10205;49.678;6.560;2023-09-19T14:20:47;25.40;48.40
20091;DHT22;10205;49.678;6.560;2023-09-19T14:23:18;25.30;48.50
20091;DHT22;10205;49.678;6.560;2023-09-19T14:25:46;25.40;48.60
20091;DHT22;10205;49.678;6.560;2023-09-19T14:28:13;25.40;48.60
20091;DHT22;10205;49.678;6.560;2023-09-19T14:30:41;25.40;48.40
20091;DHT22;10205;49.678;6.560;2023-09-19T14:33:10;25.40;48.60
20091;DHT22;10205;49.678;6.560;2023-09-19T14:35:37;25.40;49.10
20091;DHT22;10205;49.678;6.560;2023-09-19T14:38:05;25.40;48.40
20091;DHT22;10205;49.678;6.560;2023-09-19T14:40:33;25.40;48.50
20091;DHT22;10205;49.678;6.560;2023-09-19T14:43:01;25.40;48.50
20091;DHT22;10205;49.678;6.560;2023-09-19T14:45:29;25.40;48.60
20091;DHT22;10205;49.678;6.560;2023-09-19T14:47:57;25.40;48.50
20091;DHT22;10205;49.678;6.560;2023-09-19T14:50:25;25.40;48.60
20091;DHT22;10205;49.678;6.560;2023-09-19T14:52:52;25.40;48.50
20091;DHT22;10205;49.678;6.560;2023-09-19T14:55:19;25.40;48.70
20091;DHT22;10205;49.678;6.560;2023-09-19T14:57:49;25.40;48.60
20091;DHT22;10205;49.678;6.560;2023-09-19T15:00:17;25.40;48.60
20091;DHT22;10205;49.678;6.560;2023-09-19T15:02:46;25.40;48.70
20091;DHT22;10205;49.678;6.560;2023-09-19T15:05:15;25.40;48.70
20091;DHT22;10205;49.678;6.560;2023-09-19T15:07:44;25.40;48.70
20091;DHT22;10205;49.678;6.560;2023-09-19T15:10:11;25.40;48.70
20091;DHT22;10205;49.678;6.560;2023-09-19T15:12:39;25.40;48.70
20091;DHT22;10205;49.678;6.560;2023-09-19T15:15:06;25.40;48.70
20091;DHT22;10205;49.678;6.560;2023-09-19T15:17:35;25.40;48.70
20091;DHT22;10205;49.678;6.560;2023-09-19T15:20:03;25.40;48.70
20091;DHT22;10205;49.678;6.560;2023-09-19T15:22:32;25.40;48.70
20091;DHT22;10205;49.678;6.560;2023-09-19T15:25:02;25.40;48.70
20091;DHT22;10205;49.678;6.560;2023-09-19T15:27:29;25.40;48.80
20091;DHT22;10205;49.678;6.560;2023-09-19T15:29:59;25.40;48.90
20091;DHT22;10205;49.678;6.560;2023-09-19T15:32:30;25.40;48.90
20091;DHT22;10205;49.678;6.560;2023-09-19T15:34:58;25.40;48.90
20091;DHT22;10205;49.678;6.560;2023-09-19T15:37:26;25.40;49.00
20091;DHT22;10205;49.678;6.560;2023-09-19T15:39:54;25.40;49.00
20091;DHT22;10205;49.678;6.560;2023-09-19T15:42:23;25.40;49.00
20091;DHT22;10205;49.678;6.560;2023-09-19T15:44:50;25.40;48.90
20091;DHT22;10205;49.678;6.560;2023-09-19T15:47:17;25.40;49.00
20091;DHT22;10205;49.678;6.560;2023-09-19T15:49:45;25.40;49.00
20091;DHT22;10205;49.678;6.560;2023-09-19T15:52:14;25.40;49.00
20091;DHT22;10205;49.678;6.560;2023-09-19T15:54:44;25.40;48.90
20091;DHT22;10205;49.678;6.560;2023-09-19T15:57:15;25.50;48.80
20091;DHT22;10205;49.678;6.560;2023-09-19T15:59:45;25.40;48.80